createdAt,value
2023-05-20T05:49:23.745Z,2.30
2023-05-20T05:50:26.447Z,1.90
2023-05-20T05:51:29.361Z,2.13
2023-05-20T05:52:32.688Z,2.17
2023-05-20T05:54:52.578Z,2.00
2023-05-20T05:55:54.795Z,2.42
2023-05-20T05:56:57.008Z,1.90
2023-05-20T05:58:02.871Z,2.03
2023-05-20T05:59:07.449Z,1.65
2023-05-20T06:00:14.689Z,1.85
2023-05-20T06:01:23.533Z,2.20
2023-05-20T06:02:28.345Z,2.05
2023-05-20T06:04:55.264Z,2.20
2023-05-20T06:05:58.402Z,2.17
2023-05-20T06:07:00.739Z,2.20
2023-05-20T06:08:03.151Z,1.92
2023-05-20T06:09:09.229Z,2.15
2023-05-20T06:10:11.807Z,1.88
2023-05-20T06:11:13.888Z,1.90
2023-05-20T06:12:17.195Z,2.17
2023-05-20T06:13:22.161Z,2.38
2023-05-20T06:14:24.536Z,2.58
2023-05-20T06:15:29.245Z,2.08
2023-05-20T06:16:32.262Z,2.28
2023-05-20T06:17:38.306Z,2.28
2023-05-20T06:18:41.117Z,2.00
2023-05-20T06:19:44.075Z,2.05
2023-05-20T06:20:46.726Z,2.83
2023-05-20T06:21:49.068Z,2.65
2023-05-20T06:22:51.388Z,3.92
2023-05-20T06:24:01.949Z,2.40
2023-05-20T06:25:04.405Z,2.40
2023-05-20T06:26:09.213Z,2.00
2023-05-20T06:27:11.248Z,2.10
2023-05-20T06:28:14.029Z,2.22
2023-05-20T06:29:18.348Z,2.10
2023-05-20T06:30:21.036Z,2.30
2023-05-20T06:31:23.560Z,2.42
2023-05-20T06:32:28.238Z,2.60
2023-05-20T06:33:31.899Z,2.00
2023-05-20T06:34:37.777Z,2.30
2023-05-20T06:35:39.799Z,2.40
2023-05-20T06:36:41.898Z,2.13
2023-05-20T06:37:44.569Z,2.38
2023-05-20T06:38:47.089Z,2.30
2023-05-20T06:39:54.094Z,2.80
2023-05-20T06:40:56.368Z,2.42
2023-05-20T06:41:58.326Z,2.03
2023-05-20T06:43:05.088Z,2.00
2023-05-20T06:44:40.471Z,2.42
2023-05-20T06:46:08.660Z,2.30
2023-05-20T06:47:16.329Z,2.15
2023-05-20T06:48:19.229Z,2.10
2023-05-20T06:49:21.604Z,2.17
2023-05-20T06:50:25.087Z,2.10
2023-05-20T06:51:28.398Z,2.05
2023-05-20T06:52:30.544Z,1.88
2023-05-20T06:53:32.427Z,2.03
2023-05-20T06:54:40.071Z,2.10
2023-05-20T06:55:42.451Z,1.77
2023-05-20T06:56:45.727Z,1.65
2023-05-20T06:57:50.132Z,2.10
2023-05-20T06:58:57.028Z,2.17
2023-05-20T06:59:59.026Z,2.05
2023-05-20T07:01:01.792Z,1.80
2023-05-20T07:02:04.785Z,1.90
2023-05-20T07:03:07.888Z,1.85
2023-05-20T07:04:10.214Z,1.67
2023-05-20T07:05:13.136Z,2.15
2023-05-20T07:06:15.010Z,2.05
2023-05-20T07:07:18.089Z,1.80
2023-05-20T07:08:21.051Z,2.45
2023-05-20T07:09:24.642Z,2.33
2023-05-20T07:10:26.905Z,1.98
2023-05-20T07:11:29.398Z,2.03
2023-05-20T07:12:36.566Z,2.15
2023-05-20T07:13:43.131Z,1.83
2023-05-20T07:14:45.028Z,2.15
2023-05-20T07:15:47.977Z,2.05
2023-05-20T07:16:50.867Z,2.20
2023-05-20T07:17:53.279Z,1.92
2023-05-20T07:18:56.138Z,1.92
2023-05-20T07:19:58.086Z,1.90
2023-05-20T07:21:03.369Z,2.30
2023-05-20T07:22:23.714Z,2.17
2023-05-20T07:23:44.963Z,2.20
2023-05-20T07:24:47.002Z,2.30
2023-05-20T07:25:49.724Z,2.00
2023-05-20T07:26:51.843Z,2.08
2023-05-20T07:27:54.278Z,1.95
2023-05-20T07:28:56.482Z,1.77
2023-05-20T07:29:58.530Z,2.10
2023-05-20T07:31:00.648Z,2.20
2023-05-20T07:32:08.244Z,2.17
2023-05-20T07:33:11.207Z,1.80
2023-05-20T07:34:13.128Z,1.85
2023-05-20T07:35:15.931Z,2.15
2023-05-20T07:36:19.706Z,2.33
2023-05-20T07:37:24.956Z,2.17
2023-05-20T07:38:27.080Z,2.00
2023-05-20T07:39:36.554Z,1.90
2023-05-20T07:40:40.684Z,1.85
2023-05-20T07:41:43.331Z,1.80
2023-05-20T07:42:47.300Z,2.03
2023-05-20T07:44:03.432Z,1.60
2023-05-20T07:45:10.023Z,3.30
2023-05-20T07:46:14.003Z,2.78
2023-05-20T07:47:16.573Z,4.38
2023-05-20T07:49:40.411Z,1.90
2023-05-20T07:50:44.758Z,2.00
2023-05-20T07:51:47.595Z,1.70
2023-05-20T07:52:56.505Z,1.90
2023-05-20T07:54:03.102Z,1.80
2023-05-20T07:55:05.827Z,2.00
2023-05-20T07:56:07.789Z,1.75
2023-05-20T07:57:09.869Z,1.80
2023-05-20T07:58:12.074Z,1.80
2023-05-20T07:59:15.688Z,1.67
2023-05-20T08:00:21.012Z,2.00
2023-05-20T08:01:22.939Z,1.77
2023-05-20T08:02:25.271Z,1.80
2023-05-20T08:03:27.700Z,2.08
2023-05-20T08:04:37.179Z,1.70
2023-05-20T08:05:42.401Z,1.50
2023-05-20T08:06:44.678Z,1.70
2023-05-20T08:07:52.323Z,2.03
2023-05-20T08:08:57.118Z,1.85
2023-05-20T08:10:05.031Z,1.70
2023-05-20T08:11:07.814Z,1.92
2023-05-20T08:12:09.828Z,1.90
2023-05-20T08:13:11.712Z,1.70
2023-05-20T08:14:15.198Z,2.20
2023-05-20T08:15:19.222Z,1.92
2023-05-20T08:16:22.461Z,1.70
2023-05-20T08:17:31.461Z,1.80
2023-05-20T08:18:36.700Z,1.98
2023-05-20T08:19:39.184Z,1.75
2023-05-20T08:20:44.914Z,2.15
2023-05-20T08:21:47.515Z,1.80
2023-05-20T08:22:49.627Z,1.70
2023-05-20T08:23:53.368Z,2.28
2023-05-20T08:24:55.477Z,1.92
2023-05-20T08:25:58.105Z,2.10
2023-05-20T08:27:01.237Z,2.30
2023-05-20T08:28:09.177Z,2.33
2023-05-20T08:29:14.285Z,2.33
2023-05-20T08:30:20.757Z,2.20
2023-05-20T08:31:25.941Z,2.08
2023-05-20T08:32:29.918Z,1.90
2023-05-20T08:33:34.604Z,2.13
2023-05-20T08:34:37.454Z,2.20
2023-05-20T08:35:42.307Z,2.03
2023-05-20T08:36:46.324Z,1.95
2023-05-20T08:37:57.644Z,2.10
2023-05-20T08:39:00.876Z,1.73
2023-05-20T08:40:07.375Z,2.50
2023-05-20T08:41:09.531Z,2.00
2023-05-20T08:42:14.242Z,2.03
2023-05-20T08:43:16.346Z,2.00
2023-05-20T08:44:19.746Z,2.28
2023-05-20T08:45:26.694Z,2.33
2023-05-20T08:46:31.633Z,2.20
2023-05-20T08:47:34.382Z,2.63
2023-05-20T08:48:42.265Z,1.98
2023-05-20T08:49:49.849Z,2.58
2023-05-20T08:50:53.008Z,2.33
2023-05-20T08:51:56.215Z,2.42
2023-05-20T08:52:59.072Z,1.90
2023-05-20T08:54:03.763Z,2.92
2023-05-20T08:55:10.028Z,2.60
2023-05-20T08:56:13.435Z,1.90
2023-05-20T08:57:17.913Z,2.25
2023-05-20T08:58:21.134Z,1.92
2023-05-20T08:59:23.833Z,1.90
2023-05-20T09:00:29.069Z,2.28
2023-05-20T09:01:31.610Z,2.20
2023-05-20T09:02:33.526Z,2.15
2023-05-20T09:03:35.723Z,2.22
2023-05-20T09:04:38.545Z,1.77
2023-05-20T09:05:52.484Z,2.20
2023-05-20T09:06:56.352Z,2.60
2023-05-20T09:08:08.676Z,2.05
2023-05-20T09:09:12.746Z,2.53
2023-05-20T09:10:15.016Z,2.38
2023-05-20T09:11:17.334Z,2.65
2023-05-20T09:12:21.493Z,2.22
2023-05-20T09:15:32.069Z,2.45
2023-05-20T09:16:35.087Z,2.13
2023-05-20T09:19:08.612Z,2.17
2023-05-20T09:21:52.655Z,2.13
2023-05-20T09:24:25.551Z,2.47
2023-05-20T09:25:33.253Z,2.45
2023-05-20T09:26:36.288Z,4.82
2023-05-20T09:27:46.218Z,2.47
2023-05-20T09:28:48.845Z,2.03
2023-05-20T09:29:52.488Z,2.03
2023-05-20T09:31:00.054Z,2.20
2023-05-20T09:32:05.285Z,8.07
2023-05-20T09:43:55.350Z,3.05
2023-05-20T09:46:21.740Z,2.22
2023-05-20T09:47:25.665Z,2.35
2023-05-20T09:48:58.953Z,2.58
2023-05-20T09:50:04.047Z,1.83
2023-05-20T09:51:10.266Z,2.20
2023-05-20T09:52:21.532Z,2.70
2023-05-20T09:53:30.371Z,2.42
2023-05-20T09:54:36.981Z,2.17
2023-05-20T09:55:39.493Z,2.30
2023-05-20T09:56:42.477Z,2.33
2023-05-20T09:57:45.313Z,2.15
2023-05-20T09:58:48.929Z,2.45
2023-05-20T09:59:53.532Z,2.42
2023-05-20T10:00:55.520Z,2.20
2023-05-20T10:01:57.641Z,2.42
2023-05-20T10:03:00.786Z,2.05
2023-05-20T10:04:06.954Z,2.33
2023-05-20T10:05:16.788Z,1.77
2023-05-20T10:06:40.594Z,2.20
2023-05-20T10:07:58.726Z,2.42
2023-05-20T10:09:19.229Z,2.08
2023-05-20T10:10:28.946Z,2.30
2023-05-20T10:12:02.207Z,2.50
2023-05-20T10:13:29.075Z,2.22
2023-05-20T10:14:46.997Z,2.30
2023-05-20T10:16:07.379Z,3.08
2023-05-20T10:17:15.471Z,2.30
2023-05-20T10:18:35.941Z,2.40
2023-05-20T10:19:38.610Z,2.22
2023-05-20T10:20:49.653Z,2.28
2023-05-20T10:22:04.111Z,2.20
2023-05-20T10:23:06.571Z,2.30
2023-05-20T10:24:12.020Z,2.53
2023-05-20T10:25:27.017Z,2.42
2023-05-20T10:26:36.706Z,2.47
2023-05-20T10:27:46.700Z,2.55
2023-05-20T10:28:49.946Z,2.10
2023-05-20T10:30:03.518Z,2.33
2023-05-20T10:31:21.692Z,2.03
2023-05-20T10:32:58.027Z,2.50
2023-05-20T10:34:00.293Z,2.10
2023-05-20T10:35:10.242Z,2.35
2023-05-20T10:36:31.584Z,2.83
2023-05-20T10:37:44.292Z,2.78
2023-05-20T10:38:57.064Z,2.25
2023-05-20T10:40:25.741Z,2.45
2023-05-20T10:41:29.546Z,2.38
2023-05-20T10:42:31.593Z,2.33
2023-05-20T10:43:33.903Z,3.40
2023-05-20T10:44:48.666Z,2.40
2023-05-20T10:45:56.311Z,2.40
2023-05-20T10:47:24.814Z,2.40
2023-05-20T10:48:35.725Z,2.38
2023-05-20T10:49:46.114Z,2.42
2023-05-20T10:50:48.900Z,2.45
2023-05-20T10:51:51.687Z,2.42
2023-05-20T10:52:53.774Z,2.42
2023-05-20T10:53:56.632Z,2.63
2023-05-20T10:55:01.159Z,2.22
2023-05-20T10:56:04.183Z,2.40
2023-05-20T10:57:10.013Z,2.10
2023-05-20T10:58:12.424Z,2.53
2023-05-20T10:59:16.062Z,2.40
2023-05-20T11:00:24.229Z,2.50
2023-05-20T11:01:45.457Z,2.53
2023-05-20T11:09:13.886Z,2.33
2023-05-20T11:34:25.005Z,2.40
2023-05-20T11:35:33.839Z,2.30
2023-05-20T11:36:44.071Z,2.33
2023-05-20T11:37:55.484Z,2.85
2023-05-20T11:39:24.759Z,2.50
2023-05-20T11:46:52.246Z,2.17
2023-05-20T11:48:08.819Z,2.30
2023-05-20T11:49:24.384Z,2.40
2023-05-20T11:54:35.475Z,2.08
2023-05-20T11:56:00.438Z,2.35
2023-05-20T11:57:49.467Z,2.40
2023-05-20T11:59:16.847Z,2.22
2023-05-20T12:01:44.781Z,2.40
2023-05-20T12:02:54.036Z,2.22
2023-05-20T12:59:44.197Z,2.90
2023-05-20T13:00:46.972Z,3.00
2023-05-20T13:01:49.534Z,3.20
2023-05-20T13:09:35.726Z,2.53
2023-05-20T13:10:39.095Z,2.60
2023-05-20T13:11:41.072Z,2.50
2023-05-20T13:12:46.102Z,2.63
2023-05-20T13:13:48.234Z,2.80
2023-05-20T13:14:52.597Z,2.67
2023-05-20T13:15:55.213Z,2.55
2023-05-20T13:16:57.200Z,3.20
2023-05-20T13:18:01.575Z,3.80
2023-05-20T13:19:03.918Z,2.70
2023-05-20T13:20:07.517Z,2.55
2023-05-20T13:21:10.029Z,2.70
2023-05-20T13:22:12.880Z,2.60
2023-05-20T13:23:14.880Z,2.85
2023-05-20T13:24:17.606Z,2.47
2023-05-20T13:25:20.086Z,2.50
2023-05-20T13:26:24.794Z,2.50
2023-05-20T13:27:26.954Z,2.75
2023-05-20T13:28:29.008Z,2.55
2023-05-20T13:29:31.203Z,2.70
2023-05-20T13:30:34.637Z,2.80
2023-05-20T13:31:37.765Z,2.65
2023-05-20T13:32:40.022Z,2.40
2023-05-20T13:33:46.818Z,2.75
2023-05-20T13:35:26.685Z,2.72
2023-05-20T13:36:28.740Z,2.90
2023-05-20T13:37:30.916Z,2.67
2023-05-20T13:38:35.163Z,2.50
2023-05-20T13:39:38.173Z,2.50
2023-05-20T13:40:42.491Z,2.63
2023-05-20T13:41:44.883Z,3.10
2023-05-20T13:42:49.404Z,3.08
2023-05-20T13:43:51.729Z,2.80
2023-05-20T13:44:54.618Z,2.80
2023-05-20T13:45:59.153Z,2.72
2023-05-20T13:47:01.355Z,3.10
2023-05-20T13:48:03.980Z,2.83
2023-05-20T13:49:06.644Z,3.13
2023-05-20T13:50:09.817Z,2.90
2023-05-20T13:51:12.051Z,2.83
2023-05-20T13:55:38.404Z,2.80
2023-05-20T13:57:49.598Z,2.42
2023-05-20T13:58:51.801Z,2.85
2023-05-20T13:59:56.780Z,3.15
2023-05-20T14:01:02.195Z,2.70
2023-05-20T14:02:04.988Z,3.00
2023-05-20T14:03:09.392Z,3.10
2023-05-20T14:04:14.512Z,2.88
2023-05-20T14:05:16.903Z,3.83
2023-05-20T14:06:24.240Z,3.75
2023-05-20T14:10:00.634Z,3.72
2023-05-20T14:12:18.381Z,3.97
2023-05-20T14:13:32.285Z,4.00
2023-05-20T14:40:05.696Z,3.42
2023-05-20T14:47:37.156Z,3.50
2023-05-20T14:48:59.019Z,3.85
2023-05-20T14:50:02.201Z,3.40
2023-05-20T14:51:04.762Z,3.75
2023-05-20T14:52:08.173Z,4.05
2023-05-20T14:53:10.300Z,4.68
2023-05-20T14:54:12.383Z,4.43
2023-05-20T14:55:14.858Z,4.93
2023-05-20T14:56:22.990Z,4.57
2023-05-20T14:57:55.071Z,5.25
2023-05-20T14:58:59.402Z,5.57
2023-05-20T15:00:03.161Z,5.65
2023-05-20T15:01:07.915Z,5.00
2023-05-20T15:02:10.446Z,4.68
2023-05-20T15:03:14.562Z,5.00
2023-05-20T15:04:19.689Z,3.72
2023-05-20T15:09:07.830Z,3.75
2023-05-20T15:23:52.595Z,4.53
2023-05-20T15:25:15.601Z,4.50
2023-05-20T15:38:33.827Z,4.00
2023-05-20T19:33:19.577Z,6.68
2023-05-20T22:56:34.562Z,7.97
